createdAt,value
2023-10-13T00:02:00.201Z,59.55
2023-10-13T00:04:27.300Z,57.78
2023-10-13T00:07:03.742Z,57.95
2023-10-13T00:09:33.519Z,56.53
2023-10-13T00:12:00.831Z,55.72
2023-10-13T00:14:34.328Z,59.17
2023-10-13T00:17:05.830Z,55.95
2023-10-13T00:19:46.065Z,59.30
2023-10-13T00:22:16.777Z,60.85
2023-10-13T00:24:46.447Z,61.70
2023-10-13T00:27:31.396Z,53.85
2023-10-13T00:30:18.861Z,55.30
2023-10-13T00:32:48.095Z,57.60
2023-10-13T00:35:26.162Z,56.97
2023-10-13T00:37:54.528Z,53.53
2023-10-13T00:40:31.139Z,55.85
2023-10-13T00:43:21.082Z,57.00
2023-10-13T00:45:56.303Z,56.15
2023-10-13T00:48:30.465Z,56.35
2023-10-13T00:51:03.954Z,56.60
2023-10-13T00:53:34.678Z,57.70
2023-10-13T00:56:08.670Z,54.00
2023-10-13T00:58:36.058Z,52.60
2023-10-13T01:01:21.457Z,52.45
2023-10-13T01:04:01.683Z,53.58
2023-10-13T01:06:28.685Z,53.55
2023-10-13T01:09:19.844Z,54.60
2023-10-13T01:11:54.070Z,51.53
2023-10-13T01:14:21.557Z,49.67
2023-10-13T01:16:54.162Z,46.63
2023-10-13T01:19:25.866Z,50.20
2023-10-13T01:21:58.512Z,50.17
2023-10-13T01:26:53.935Z,47.88
2023-10-13T01:29:20.669Z,48.20
2023-10-13T01:31:47.806Z,47.08
2023-10-13T01:34:20.811Z,45.45
2023-10-13T01:36:47.509Z,42.53
2023-10-13T01:39:17.840Z,42.63
2023-10-13T01:41:44.588Z,40.88
2023-10-13T01:44:15.826Z,42.85
2023-10-13T01:46:43.714Z,42.58
2023-10-13T01:49:10.252Z,40.83
2023-10-13T01:51:36.731Z,38.88
2023-10-13T01:54:04.273Z,40.75
2023-10-13T01:56:31.385Z,38.47
2023-10-13T01:58:58.139Z,38.45
2023-10-13T02:01:27.805Z,38.85
2023-10-13T02:04:05.893Z,37.38
2023-10-13T02:06:34.071Z,34.10
2023-10-13T02:09:18.015Z,36.78
2023-10-13T02:11:48.307Z,41.65
2023-10-13T02:14:18.106Z,33.67
2023-10-13T02:16:48.233Z,37.03
2023-10-13T02:19:17.118Z,36.40
2023-10-13T02:21:45.876Z,36.97
2023-10-13T02:24:19.251Z,34.05
2023-10-13T02:26:46.250Z,34.88
2023-10-13T02:29:14.785Z,31.30
2023-10-13T02:31:43.138Z,33.72
2023-10-13T02:34:09.975Z,32.85
2023-10-13T02:36:37.513Z,34.00
2023-10-13T02:39:08.704Z,35.08
2023-10-13T02:41:38.748Z,32.47
2023-10-13T02:44:11.461Z,32.55
2023-10-13T02:46:40.749Z,31.60
2023-10-13T02:49:11.914Z,31.75
2023-10-13T02:51:43.006Z,32.53
2023-10-13T02:54:19.413Z,32.33
2023-10-13T02:56:50.608Z,31.98
2023-10-13T02:59:20.989Z,32.28
2023-10-13T03:01:47.861Z,31.63
2023-10-13T03:04:14.548Z,34.42
2023-10-13T03:06:43.794Z,33.20
2023-10-13T03:09:20.714Z,29.88
2023-10-13T03:11:51.166Z,33.65
2023-10-13T03:14:48.024Z,30.33
2023-10-13T03:17:19.832Z,29.15
2023-10-13T03:19:52.989Z,32.33
2023-10-13T03:22:19.669Z,30.20
2023-10-13T03:24:49.158Z,29.85
2023-10-13T03:27:24.375Z,29.02
2023-10-13T03:29:55.782Z,32.17
2023-10-13T03:32:23.130Z,28.08
2023-10-13T03:35:01.947Z,26.55
2023-10-13T03:37:39.349Z,31.70
2023-10-13T03:40:23.007Z,30.83
2023-10-13T03:43:05.889Z,30.00
2023-10-13T03:45:43.958Z,26.08
2023-10-13T03:48:12.466Z,29.45
2023-10-13T03:50:58.871Z,26.75
2023-10-13T03:53:26.749Z,31.02
2023-10-13T03:56:09.000Z,27.85
2023-10-13T03:58:47.327Z,28.35
2023-10-13T04:01:18.031Z,24.55
2023-10-13T04:04:04.848Z,26.70
2023-10-13T04:06:47.829Z,24.95
2023-10-13T04:09:33.108Z,27.92
2023-10-13T04:12:04.419Z,24.63
2023-10-13T04:14:54.574Z,27.63
2023-10-13T04:17:25.002Z,25.50
2023-10-13T04:20:07.223Z,27.15
2023-10-13T04:22:51.159Z,26.17
2023-10-13T04:25:44.107Z,24.35
2023-10-13T04:28:17.377Z,24.67
2023-10-13T04:31:00.931Z,27.33
2023-10-13T04:33:35.490Z,24.88
2023-10-13T04:36:22.735Z,27.85
2023-10-13T04:39:05.401Z,25.33
2023-10-13T04:44:44.932Z,24.83
2023-10-13T04:47:19.324Z,23.17
2023-10-13T04:49:48.652Z,26.20
2023-10-13T04:52:35.189Z,27.20
2023-10-13T04:55:17.437Z,27.33
2023-10-13T04:57:46.796Z,28.52
2023-10-13T05:00:20.061Z,26.95
2023-10-13T05:03:03.088Z,25.17
2023-10-13T05:05:48.297Z,25.50
2023-10-13T05:08:33.684Z,25.55
2023-10-13T05:11:23.179Z,25.33
2023-10-13T05:14:21.967Z,25.35
2023-10-13T05:17:07.584Z,24.90
2023-10-13T05:19:52.757Z,24.35
2023-10-13T05:22:37.719Z,23.50
2023-10-13T05:25:23.257Z,22.98
2023-10-13T05:28:12.342Z,23.05
2023-10-13T05:31:01.738Z,21.50
2023-10-13T05:33:54.051Z,21.50
2023-10-13T05:36:38.975Z,20.55
2023-10-13T05:39:23.820Z,19.08
2023-10-13T05:42:08.624Z,17.02
2023-10-13T05:44:39.547Z,18.10
2023-10-13T05:47:44.212Z,17.10
2023-10-13T05:50:15.697Z,13.65
2023-10-13T05:52:56.239Z,12.38
2023-10-13T05:55:45.491Z,13.45
2023-10-13T05:58:31.381Z,11.93
2023-10-13T06:01:16.480Z,11.25
2023-10-13T06:04:01.698Z,11.93
2023-10-13T06:06:46.904Z,14.65
2023-10-13T06:09:31.750Z,12.90
2023-10-13T06:12:16.782Z,11.60
2023-10-13T06:15:07.690Z,12.02
2023-10-13T06:17:52.670Z,15.05
2023-10-13T06:20:37.508Z,14.63
2023-10-13T06:23:22.838Z,15.75
2023-10-13T06:26:11.578Z,14.85
2023-10-13T06:28:44.365Z,13.57
2023-10-13T06:31:22.691Z,13.57
2023-10-13T06:33:49.810Z,13.55
2023-10-13T06:36:16.362Z,14.65
2023-10-13T06:38:42.836Z,12.68
2023-10-13T06:41:09.449Z,15.45
2023-10-13T06:43:44.237Z,13.95
2023-10-13T06:46:17.036Z,13.15
2023-10-13T06:48:44.810Z,15.00
2023-10-13T06:51:22.666Z,15.13
2023-10-13T06:53:49.911Z,14.10
2023-10-13T06:56:23.045Z,12.15
2023-10-13T06:58:52.518Z,13.13
2023-10-13T07:01:24.572Z,13.93
2023-10-13T07:03:54.664Z,13.27
2023-10-13T07:06:24.279Z,14.60
2023-10-13T07:08:53.585Z,11.38
2023-10-13T07:11:35.089Z,13.55
2023-10-13T07:14:12.503Z,11.93
2023-10-13T07:16:47.613Z,13.57
2023-10-13T07:19:20.674Z,11.38
2023-10-13T07:21:49.265Z,14.40
2023-10-13T07:24:17.026Z,13.48
2023-10-13T07:26:58.799Z,13.48
2023-10-13T07:29:25.964Z,12.83
2023-10-13T07:31:52.702Z,13.90
2023-10-13T07:34:32.836Z,12.48
2023-10-13T07:37:04.662Z,14.15
2023-10-13T07:39:36.210Z,11.88
2023-10-13T07:42:06.932Z,10.40
2023-10-13T07:44:34.479Z,12.73
2023-10-13T07:47:06.008Z,11.18
2023-10-13T07:49:42.073Z,8.90
2023-10-13T07:52:31.494Z,9.80
2023-10-13T07:55:21.550Z,10.95
2023-10-13T07:58:00.077Z,10.30
2023-10-13T08:00:39.415Z,10.50
2023-10-13T08:03:18.259Z,10.15
2023-10-13T08:06:11.942Z,12.60
2023-10-13T08:08:41.816Z,10.82
2023-10-13T08:11:24.242Z,11.95
2023-10-13T08:14:08.203Z,12.52
2023-10-13T08:16:55.487Z,12.80
2023-10-13T08:19:28.981Z,10.52
2023-10-13T08:22:00.382Z,9.98
2023-10-13T08:24:50.583Z,8.70
2023-10-13T08:27:37.995Z,9.13
2023-10-13T08:30:23.652Z,9.23
2023-10-13T08:32:56.889Z,8.30
2023-10-13T08:35:24.760Z,11.52
2023-10-13T08:37:54.196Z,8.57
2023-10-13T08:40:42.575Z,9.90
2023-10-13T08:43:14.941Z,9.85
2023-10-13T08:48:17.827Z,13.13
2023-10-13T08:50:50.278Z,10.35
2023-10-13T08:53:29.517Z,10.45
2023-10-13T08:56:15.079Z,6.80
2023-10-13T08:58:54.516Z,7.13
2023-10-13T09:01:40.903Z,10.68
2023-10-13T09:04:28.479Z,9.88
2023-10-13T09:07:08.735Z,10.23
2023-10-13T09:09:41.261Z,8.60
2023-10-13T09:12:33.656Z,10.90
2023-10-13T09:15:18.417Z,8.32
2023-10-13T09:17:52.258Z,9.27
2023-10-13T09:20:40.888Z,8.52
2023-10-13T09:23:25.577Z,10.05
2023-10-13T09:25:59.001Z,9.27
2023-10-13T09:28:29.416Z,8.30
2023-10-13T09:31:00.091Z,7.78
2023-10-13T09:33:37.069Z,9.20
2023-10-13T09:36:07.896Z,8.00
2023-10-13T09:38:35.679Z,11.60
2023-10-13T09:41:19.039Z,7.90
2023-10-13T09:43:47.225Z,11.05
2023-10-13T09:46:24.721Z,8.70
2023-10-13T09:49:05.415Z,8.57
2023-10-13T09:51:35.422Z,7.70
2023-10-13T09:54:35.712Z,9.07
2023-10-13T09:57:12.906Z,11.25
2023-10-13T09:59:57.025Z,11.13
2023-10-13T10:02:27.102Z,11.65
2023-10-13T10:05:13.746Z,9.85
2023-10-13T10:07:45.302Z,10.02
2023-10-13T10:10:12.398Z,9.13
2023-10-13T10:12:40.046Z,12.73
2023-10-13T10:15:44.669Z,14.10
2023-10-13T10:18:24.126Z,11.13
2023-10-13T10:20:55.995Z,10.73
2023-10-13T10:23:25.206Z,10.30
2023-10-13T10:25:52.916Z,10.70
2023-10-13T10:28:21.181Z,9.20
2023-10-13T10:30:48.065Z,12.48
2023-10-13T10:33:16.582Z,12.63
2023-10-13T10:35:44.214Z,14.20
2023-10-13T10:38:35.269Z,11.25
2023-10-13T10:41:04.892Z,11.02
2023-10-13T10:43:43.582Z,11.30
2023-10-13T10:46:19.930Z,11.63
2023-10-13T10:48:46.813Z,12.57
2023-10-13T10:51:24.909Z,10.63
2023-10-13T10:53:54.202Z,13.27
2023-10-13T10:56:37.923Z,9.43
2023-10-13T10:59:06.254Z,10.50
2023-10-13T11:01:39.631Z,16.25
2023-10-13T11:04:09.861Z,13.93
2023-10-13T11:06:47.164Z,13.25
2023-10-13T11:09:22.309Z,10.35
2023-10-13T11:11:53.729Z,11.30
2023-10-13T11:14:28.570Z,14.05
2023-10-13T11:17:01.174Z,16.55
2023-10-13T11:19:38.830Z,12.95
2023-10-13T11:22:30.208Z,9.25
2023-10-13T11:25:00.216Z,15.13
2023-10-13T11:27:45.480Z,11.63
2023-10-13T11:30:15.793Z,10.98
2023-10-13T11:32:43.832Z,16.08
2023-10-13T11:35:21.545Z,15.55
2023-10-13T11:37:57.554Z,14.75
2023-10-13T11:40:43.282Z,13.63
2023-10-13T11:43:16.655Z,14.93
2023-10-13T11:45:56.029Z,16.55
2023-10-13T11:48:37.869Z,15.27
2023-10-13T11:51:08.514Z,14.20
2023-10-13T11:53:36.107Z,10.27
2023-10-13T11:56:09.614Z,12.20
2023-10-13T11:58:36.771Z,13.93
2023-10-13T12:01:29.418Z,14.45
2023-10-13T12:04:17.201Z,12.15
2023-10-13T12:06:44.991Z,13.05
2023-10-13T12:09:17.555Z,10.20
2023-10-13T12:11:45.956Z,12.70
2023-10-13T12:14:18.070Z,15.75
2023-10-13T12:16:49.759Z,13.48
2023-10-13T12:19:17.809Z,14.38
2023-10-13T12:21:49.587Z,12.98
2023-10-13T12:24:34.332Z,11.55
2023-10-13T12:27:00.768Z,13.43
2023-10-13T12:29:30.463Z,17.10
2023-10-13T12:32:09.719Z,14.43
2023-10-13T12:34:55.450Z,15.88
2023-10-13T12:37:37.354Z,15.77
2023-10-13T12:40:26.477Z,16.13
2023-10-13T12:43:11.771Z,12.23
2023-10-13T12:46:04.113Z,15.98
2023-10-13T12:48:50.469Z,13.02
2023-10-13T12:51:32.744Z,12.48
2023-10-13T12:54:17.879Z,15.05
2023-10-13T12:56:44.352Z,11.52
2023-10-13T12:59:14.602Z,12.02
2023-10-13T13:01:44.411Z,12.90
2023-10-13T13:04:34.331Z,15.70
2023-10-13T13:07:01.020Z,13.02
2023-10-13T13:09:27.678Z,11.95
2023-10-13T13:11:58.554Z,17.98
2023-10-13T13:14:31.879Z,16.88
2023-10-13T13:17:05.699Z,13.57
2023-10-13T13:19:42.716Z,20.90
2023-10-13T13:22:13.470Z,20.02
2023-10-13T13:24:46.790Z,15.98
2023-10-13T13:27:21.084Z,12.63
2023-10-13T13:29:47.872Z,13.73
2023-10-13T13:32:24.981Z,11.63
2023-10-13T13:35:08.939Z,12.25
2023-10-13T13:37:35.974Z,14.98
2023-10-13T13:40:17.487Z,17.63
2023-10-13T13:42:44.720Z,11.38
2023-10-13T13:45:22.652Z,15.65
2023-10-13T13:47:54.553Z,13.95
2023-10-13T13:50:25.974Z,17.67
2023-10-13T13:52:56.943Z,12.43
2023-10-13T13:55:24.350Z,14.18
2023-10-13T13:57:51.825Z,10.23
2023-10-13T14:00:31.351Z,11.93
2023-10-13T14:02:59.125Z,12.75
2023-10-13T14:05:25.748Z,9.13
2023-10-13T14:07:52.288Z,18.45
2023-10-13T14:10:32.814Z,14.15
2023-10-13T14:13:21.877Z,17.23
2023-10-13T14:15:48.345Z,14.35
2023-10-13T14:18:18.780Z,12.85
2023-10-13T14:20:45.578Z,14.38
2023-10-13T14:23:14.610Z,13.50
2023-10-13T14:25:45.666Z,14.73
2023-10-13T14:28:19.031Z,15.20
2023-10-13T14:30:45.942Z,14.55
2023-10-13T14:33:12.406Z,12.90
2023-10-13T14:35:38.860Z,13.77
2023-10-13T14:38:05.376Z,15.02
2023-10-13T14:40:32.000Z,11.32
2023-10-13T14:42:58.547Z,12.93
2023-10-13T14:45:25.170Z,12.98
2023-10-13T14:47:53.841Z,15.98
2023-10-13T14:50:21.012Z,14.70
2023-10-13T14:52:51.499Z,16.80
2023-10-13T14:55:20.962Z,15.82
2023-10-13T14:57:51.251Z,9.30
2023-10-13T15:00:26.247Z,13.90
2023-10-13T15:02:54.238Z,14.95
2023-10-13T15:05:21.088Z,16.38
2023-10-13T15:07:47.687Z,12.27
2023-10-13T15:10:17.476Z,14.40
2023-10-13T15:12:45.692Z,14.85
2023-10-13T15:15:17.020Z,16.67
2023-10-13T15:17:44.395Z,19.58
2023-10-13T15:20:12.417Z,15.07
2023-10-13T15:22:39.165Z,18.45
2023-10-13T15:25:17.991Z,12.50
2023-10-13T15:27:51.294Z,19.70
2023-10-13T15:30:32.036Z,15.27
2023-10-13T15:32:58.651Z,15.32
2023-10-13T15:35:29.556Z,14.65
2023-10-13T15:37:56.934Z,15.75
2023-10-13T15:40:25.086Z,14.65
2023-10-13T15:42:51.552Z,13.57
2023-10-13T15:45:18.214Z,17.83
2023-10-13T15:50:21.893Z,20.42
2023-10-13T15:52:49.050Z,13.63
2023-10-13T15:55:16.295Z,15.32
2023-10-13T15:57:42.833Z,11.23
2023-10-13T16:00:24.652Z,17.27
2023-10-13T16:02:58.336Z,14.50
2023-10-13T16:05:36.128Z,15.65
2023-10-13T16:08:04.461Z,12.63
2023-10-13T16:10:30.947Z,16.00
2023-10-13T16:13:00.349Z,11.25
2023-10-13T16:15:27.008Z,18.48
2023-10-13T16:17:54.712Z,15.10
2023-10-13T16:20:22.060Z,17.08
2023-10-13T16:22:49.131Z,13.20
2023-10-13T16:25:20.117Z,18.48
2023-10-13T16:27:47.503Z,12.03
2023-10-13T16:30:20.423Z,15.18
2023-10-13T16:32:47.357Z,15.82
2023-10-13T16:35:17.278Z,12.73
2023-10-13T16:37:46.280Z,14.77
2023-10-13T16:40:16.714Z,19.52
2023-10-13T16:42:43.208Z,19.08
2023-10-13T16:45:16.146Z,16.63
2023-10-13T16:47:43.796Z,14.70
2023-10-13T16:50:23.387Z,14.07
2023-10-13T16:52:50.196Z,15.93
2023-10-13T16:55:21.010Z,10.73
2023-10-13T16:57:51.530Z,23.58
2023-10-13T17:00:19.809Z,14.77
2023-10-13T17:02:47.038Z,17.23
2023-10-13T17:05:15.067Z,16.65
2023-10-13T17:07:41.500Z,15.95
2023-10-13T17:10:12.298Z,14.68
2023-10-13T17:12:39.229Z,15.85
2023-10-13T17:15:14.840Z,14.57
2023-10-13T17:17:45.359Z,16.63
2023-10-13T17:20:12.127Z,15.27
2023-10-13T17:22:38.651Z,14.95
2023-10-13T17:25:08.299Z,15.68
2023-10-13T17:27:39.109Z,15.25
2023-10-13T17:30:09.992Z,22.45
2023-10-13T17:32:40.051Z,16.23
2023-10-13T17:35:13.154Z,13.35
2023-10-13T17:37:43.599Z,16.90
2023-10-13T17:40:16.715Z,11.98
2023-10-13T17:42:44.285Z,17.77
2023-10-13T17:45:11.205Z,14.85
2023-10-13T17:47:37.964Z,12.98
2023-10-13T17:50:05.009Z,17.30
2023-10-13T17:52:31.519Z,12.30
2023-10-13T17:54:57.999Z,16.27
2023-10-13T17:57:24.900Z,16.23
2023-10-13T17:59:51.404Z,15.45
2023-10-13T18:02:18.250Z,11.27
2023-10-13T18:04:44.769Z,15.93
2023-10-13T18:07:12.595Z,13.82
2023-10-13T18:09:41.544Z,15.50
2023-10-13T18:12:09.412Z,15.13
2023-10-13T18:14:37.309Z,17.40
2023-10-13T18:17:06.706Z,13.85
2023-10-13T18:19:34.942Z,9.38
2023-10-13T18:22:03.149Z,11.02
2023-10-13T18:24:30.772Z,11.85
2023-10-13T18:27:01.472Z,15.13
2023-10-13T18:29:28.053Z,14.77
2023-10-13T18:31:54.546Z,17.58
2023-10-13T18:34:21.241Z,14.13
2023-10-13T18:36:48.098Z,16.63
2023-10-13T18:39:19.717Z,16.70
2023-10-13T18:41:49.433Z,18.75
2023-10-13T18:44:16.069Z,14.13
2023-10-13T18:46:42.719Z,13.77
2023-10-13T18:49:11.977Z,15.48
2023-10-13T18:51:38.774Z,11.43
2023-10-13T18:54:08.774Z,17.02
2023-10-13T18:56:35.459Z,14.73
2023-10-13T18:59:03.989Z,11.73
2023-10-13T19:01:31.370Z,15.00
2023-10-13T19:04:02.963Z,13.48
2023-10-13T19:06:32.419Z,15.10
2023-10-13T19:08:58.930Z,15.63
2023-10-13T19:11:25.890Z,12.63
2023-10-13T19:13:53.749Z,13.27
2023-10-13T19:16:26.919Z,16.08
2023-10-13T19:18:54.704Z,14.18
2023-10-13T19:21:21.729Z,12.57
2023-10-13T19:23:52.616Z,12.50
2023-10-13T19:26:25.588Z,11.35
2023-10-13T19:28:56.260Z,12.00
2023-10-13T19:31:29.511Z,14.57
2023-10-13T19:33:58.255Z,14.52
2023-10-13T19:36:24.803Z,17.77
2023-10-13T19:38:52.254Z,14.77
2023-10-13T19:41:26.585Z,13.35
2023-10-13T19:44:03.585Z,14.27
2023-10-13T19:46:33.767Z,15.38
2023-10-13T19:49:04.365Z,13.00
2023-10-13T19:51:31.781Z,16.35
2023-10-13T19:54:01.463Z,14.27
2023-10-13T19:56:29.723Z,15.25
2023-10-13T19:58:56.590Z,12.80
2023-10-13T20:01:24.370Z,13.50
2023-10-13T20:03:57.614Z,12.40
2023-10-13T20:06:26.978Z,16.92
2023-10-13T20:08:55.475Z,14.68
2023-10-13T20:11:31.936Z,11.70
2023-10-13T20:13:58.340Z,12.82
2023-10-13T20:16:25.286Z,16.02
2023-10-13T20:18:56.205Z,12.25
2023-10-13T20:21:26.507Z,15.05
2023-10-13T20:23:55.665Z,13.23
2023-10-13T20:26:22.556Z,14.50
2023-10-13T20:28:48.976Z,16.42
2023-10-13T20:31:15.539Z,16.40
2023-10-13T20:33:44.608Z,16.75
2023-10-13T20:36:11.923Z,14.23
2023-10-13T20:38:38.536Z,13.30
2023-10-13T20:41:09.346Z,13.85
2023-10-13T20:43:39.357Z,16.85
2023-10-13T20:46:06.597Z,18.33
2023-10-13T20:48:33.265Z,15.65
2023-10-13T20:51:10.757Z,13.68
2023-10-13T20:53:38.433Z,17.15
2023-10-13T20:56:06.438Z,15.05
2023-10-13T20:58:33.367Z,14.57
2023-10-13T21:01:09.187Z,16.38
2023-10-13T21:03:38.871Z,16.40
2023-10-13T21:06:08.942Z,15.63
2023-10-13T21:08:38.776Z,17.50
2023-10-13T21:11:07.638Z,20.45
2023-10-13T21:13:37.223Z,17.60
2023-10-13T21:16:10.592Z,17.65
2023-10-13T21:18:44.539Z,17.75
2023-10-13T21:21:20.565Z,13.50
2023-10-13T21:23:54.786Z,18.70
2023-10-13T21:26:22.865Z,15.15
2023-10-13T21:28:52.790Z,15.48
2023-10-13T21:31:21.561Z,18.33
2023-10-13T21:33:49.317Z,15.50
2023-10-13T21:36:16.939Z,20.02
2023-10-13T21:38:49.173Z,17.67
2023-10-13T21:41:22.251Z,22.95
2023-10-13T21:43:54.336Z,18.80
2023-10-13T21:46:23.095Z,18.88
2023-10-13T21:48:50.489Z,21.85
2023-10-13T21:51:19.558Z,17.77
2023-10-13T21:53:49.888Z,16.45
2023-10-13T21:56:20.714Z,14.75
2023-10-13T21:58:48.968Z,16.73
2023-10-13T22:01:22.012Z,20.75
2023-10-13T22:03:52.692Z,17.85
2023-10-13T22:06:22.231Z,19.90
2023-10-13T22:08:48.980Z,17.95
2023-10-13T22:11:18.250Z,18.10
2023-10-13T22:13:49.368Z,17.10
2023-10-13T22:16:17.942Z,21.90
2023-10-13T22:18:47.141Z,18.17
2023-10-13T22:21:15.254Z,17.95
2023-10-13T22:23:42.176Z,14.20
2023-10-13T22:26:15.840Z,16.13
2023-10-13T22:28:46.966Z,14.63
2023-10-13T22:31:17.085Z,17.95
2023-10-13T22:33:45.779Z,14.48
2023-10-13T22:36:15.484Z,14.32
2023-10-13T22:38:42.328Z,14.68
2023-10-13T22:41:12.890Z,18.45
2023-10-13T22:43:42.683Z,14.18
2023-10-13T22:46:09.274Z,17.40
2023-10-13T22:48:36.037Z,14.93
2023-10-13T22:51:03.470Z,19.15
2023-10-13T22:53:30.864Z,12.05
2023-10-13T22:55:59.456Z,11.65
2023-10-13T22:58:25.918Z,15.63
2023-10-13T23:00:55.211Z,15.98
2023-10-13T23:03:22.981Z,12.80
2023-10-13T23:05:52.902Z,16.73
2023-10-13T23:08:28.499Z,14.85
2023-10-13T23:10:54.903Z,16.55
2023-10-13T23:13:21.623Z,12.90
2023-10-13T23:15:50.060Z,17.73
2023-10-13T23:18:19.572Z,14.20
2023-10-13T23:20:51.752Z,18.88
2023-10-13T23:23:18.327Z,14.85
2023-10-13T23:25:44.769Z,21.80
2023-10-13T23:28:22.099Z,17.35
2023-10-13T23:30:56.658Z,14.88
2023-10-13T23:33:24.136Z,19.67
2023-10-13T23:35:51.187Z,15.38
2023-10-13T23:38:17.974Z,14.98
2023-10-13T23:40:45.718Z,18.33
2023-10-13T23:43:20.379Z,13.73
2023-10-13T23:46:00.108Z,17.38
2023-10-13T23:48:34.450Z,14.27
2023-10-13T23:51:02.528Z,16.52
2023-10-13T23:53:33.667Z,15.07
2023-10-13T23:56:09.573Z,14.75
2023-10-13T23:58:40.176Z,16.98
